Time;durP1;ratioP1;P1;durP2;ratioP2;P2;SDS_P1;SDS_P2;PMS_P1;PMS_P2;Temp;Humidity;BMP_temperature;BMP_pressure;BME280_temperature;BME280_humidity;BME280_pressure;Samples;Min_cycle;Max_cycle;Signal;HPM_P1;HPM_P2
2021/07/03 00:00:44;;;;;;;33.75;15.07;;;12.50;99.90;;;;;;4972156;28;20129;-88
2021/07/03 00:03:11;;;;;;;18.13;11.75;;;12.40;99.90;;;;;;4958820;28;20046;-85
2021/07/03 00:05:36;;;;;;;21.00;12.32;;;12.40;99.90;;;;;;4972031;28;20656;-84
2021/07/03 00:08:03;;;;;;;28.27;13.93;;;12.40;99.90;;;;;;4954139;28;20054;-84
2021/07/03 00:10:29;;;;;;;21.98;13.05;;;12.30;99.90;;;;;;4960192;28;20039;-83
2021/07/03 00:12:55;;;;;;;34.30;15.75;;;12.30;99.90;;;;;;4953855;28;20042;-83
2021/07/03 00:15:21;;;;;;;34.25;16.90;;;12.30;99.90;;;;;;4954854;28;20046;-83
2021/07/03 00:17:49;;;;;;;18.55;12.32;;;12.20;99.90;;;;;;4971313;28;20038;-88
2021/07/03 00:20:15;;;;;;;22.92;12.07;;;12.20;99.90;;;;;;4957531;28;20117;-85
2021/07/03 00:22:41;;;;;;;26.55;12.60;;;12.20;99.90;;;;;;4938934;28;20474;-85
2021/07/03 00:25:08;;;;;;;14.27;9.50;;;12.10;99.90;;;;;;4953993;28;20042;-84
2021/07/03 00:27:35;;;;;;;22.13;11.20;;;12.00;99.90;;;;;;4971915;28;20050;-85
2021/07/03 00:30:06;;;;;;;24.63;13.73;;;12.00;99.90;;;;;;4955552;28;20067;-85
2021/07/03 00:32:33;;;;;;;13.07;9.65;;;11.90;99.90;;;;;;4953878;28;20050;-83
2021/07/03 00:34:59;;;;;;;14.55;10.23;;;11.90;99.90;;;;;;4970042;28;20054;-84
2021/07/03 00:37:25;;;;;;;14.40;9.80;;;11.90;99.90;;;;;;4957737;28;20058;-84
2021/07/03 00:39:52;;;;;;;69.18;6.03;;;11.80;99.90;;;;;;4969586;28;20046;-86
2021/07/03 00:42:18;;;;;;;61.72;4.80;;;11.90;99.90;;;;;;4954049;28;20039;-84
2021/07/03 00:44:44;;;;;;;221.57;6.80;;;11.80;99.90;;;;;;4970987;28;20376;-84
2021/07/03 00:47:10;;;;;;;184.15;5.55;;;11.80;99.90;;;;;;4937130;28;20043;-84
2021/07/03 00:49:36;;;;;;;143.20;4.22;;;11.70;99.90;;;;;;4937689;28;20043;-84
2021/07/03 00:52:06;;;;;;;6.05;5.18;;;11.60;99.90;;;;;;4936576;28;20086;-85
2021/07/03 00:54:40;;;;;;;10.07;3.30;;;11.60;99.90;;;;;;4957242;28;20039;-84
2021/07/03 00:57:07;;;;;;;30.23;4.60;;;11.60;99.90;;;;;;4973848;28;20136;-85
2021/07/03 00:59:37;;;;;;;6.22;5.53;;;11.50;99.90;;;;;;4970920;28;20102;-85
2021/07/03 01:02:06;;;;;;;21.85;12.75;;;11.50;99.90;;;;;;4970762;28;20043;-84
2021/07/03 01:04:32;;;;;;;20.17;10.77;;;11.50;99.90;;;;;;4977971;28;20049;-83
2021/07/03 01:06:59;;;;;;;136.80;14.95;;;11.60;99.90;;;;;;4980649;28;20454;-84
2021/07/03 01:09:25;;;;;;;257.02;10.60;;;11.60;99.90;;;;;;4963808;28;20066;-84
2021/07/03 01:11:52;;;;;;;89.43;15.70;;;11.60;99.90;;;;;;4970875;28;20042;-88
2021/07/03 01:14:19;;;;;;;21.00;11.95;;;11.60;99.90;;;;;;4952534;28;20059;-86
2021/07/03 01:16:47;;;;;;;19.30;12.63;;;11.60;99.90;;;;;;4969006;28;20054;-84
2021/07/03 01:19:13;;;;;;;14.07;8.93;;;11.50;99.90;;;;;;4970177;28;20069;-84
2021/07/03 01:21:39;;;;;;;35.78;6.43;;;11.50;99.90;;;;;;4969346;28;20114;-84
2021/07/03 01:24:05;;;;;;;16.88;9.93;;;11.50;99.90;;;;;;4969132;28;20117;-85
2021/07/03 01:26:46;;;;;;;88.20;10.30;;;11.50;99.90;;;;;;4973301;28;20490;-84
2021/07/03 01:29:13;;;;;;;285.65;14.85;;;11.50;99.90;;;;;;4970217;28;20053;-84
2021/07/03 01:31:41;;;;;;;111.70;10.07;;;11.50;99.90;;;;;;4960038;28;20038;-84
2021/07/03 01:34:08;;;;;;;15.30;7.88;;;11.50;99.90;;;;;;4972565;28;20070;-84
2021/07/03 01:36:34;;;;;;;92.13;7.85;;;11.50;99.90;;;;;;4954297;28;20043;-85
2021/07/03 01:39:00;;;;;;;175.20;8.02;;;11.50;99.90;;;;;;4965593;28;20042;-84
2021/07/03 01:41:26;;;;;;;15.50;9.10;;;11.40;99.90;;;;;;4968301;28;20057;-85
2021/07/03 01:43:51;;;;;;;12.88;9.30;;;11.40;99.90;;;;;;4971110;28;20064;-84
2021/07/03 01:46:17;;;;;;;15.80;8.88;;;11.40;99.90;;;;;;4971041;28;20078;-83
2021/07/03 01:48:43;;;;;;;89.28;4.75;;;11.30;99.90;;;;;;4971847;28;20038;-84
2021/07/03 01:51:09;;;;;;;165.50;5.60;;;11.30;99.90;;;;;;4956710;28;20078;-84
2021/07/03 01:53:35;;;;;;;172.32;6.15;;;11.20;99.90;;;;;;4978632;28;20082;-84
2021/07/03 01:56:01;;;;;;;67.47;7.10;;;11.10;99.90;;;;;;4950572;28;20046;-85
2021/07/03 01:58:27;;;;;;;17.88;7.47;;;11.00;99.90;;;;;;4958234;28;20034;-84
2021/07/03 02:00:55;;;;;;;138.95;7.95;;;11.00;99.90;;;;;;4974990;28;20039;-84
2021/07/03 02:03:23;;;;;;;221.65;11.88;;;11.00;99.90;;;;;;4957800;28;20505;-85
2021/07/03 02:05:49;;;;;;;122.55;8.40;;;11.10;99.90;;;;;;4955858;28;20063;-85
2021/07/03 02:08:15;;;;;;;144.45;10.23;;;11.00;99.90;;;;;;4954853;28;20067;-86
2021/07/03 02:10:41;;;;;;;99.50;11.38;;;11.10;99.90;;;;;;4957036;28;20045;-85
2021/07/03 02:13:08;;;;;;;196.75;11.30;;;11.10;99.90;;;;;;4956330;28;20545;-85
2021/07/03 02:15:34;;;;;;;221.13;10.27;;;11.10;99.90;;;;;;4970230;28;20057;-85
2021/07/03 02:18:00;;;;;;;247.70;9.55;;;11.10;99.90;;;;;;4975513;28;20046;-87
2021/07/03 02:20:26;;;;;;;261.27;15.77;;;11.10;99.90;;;;;;4975623;28;20047;-85
2021/07/03 02:22:51;;;;;;;136.95;9.88;;;11.10;99.90;;;;;;4959771;28;20537;-85
2021/07/03 02:25:18;;;;;;;111.70;8.05;;;11.10;99.90;;;;;;4956118;28;20069;-85
2021/07/03 02:27:44;;;;;;;65.63;8.07;;;11.00;99.90;;;;;;4976013;28;20042;-84
2021/07/03 02:30:13;;;;;;;17.05;6.32;;;11.00;99.90;;;;;;4988650;28;20371;-84
2021/07/03 02:32:40;;;;;;;12.65;7.13;;;11.00;99.90;;;;;;4971040;28;20129;-85
2021/07/03 02:35:07;;;;;;;78.45;6.60;;;10.90;99.90;;;;;;4965422;28;20053;-86
2021/07/03 02:37:34;;;;;;;84.30;8.75;;;10.90;99.90;;;;;;4992814;28;20053;-86
2021/07/03 02:40:00;;;;;;;122.43;11.25;;;10.90;99.90;;;;;;4992399;28;20042;-88
2021/07/03 02:42:25;;;;;;;128.02;11.65;;;10.90;99.90;;;;;;4967530;28;20557;-85
2021/07/03 02:44:51;;;;;;;148.40;9.60;;;10.80;99.90;;;;;;4968875;28;20038;-87
2021/07/03 02:47:17;;;;;;;84.13;7.15;;;10.90;99.90;;;;;;4983782;28;20461;-86
2021/07/03 02:49:43;;;;;;;124.78;8.73;;;10.80;99.90;;;;;;4961149;28;20049;-86
2021/07/03 02:52:09;;;;;;;75.72;7.45;;;10.80;99.90;;;;;;4972862;28;20125;-86
2021/07/03 02:54:34;;;;;;;101.57;8.73;;;10.80;99.90;;;;;;4959759;28;20058;-86
2021/07/03 02:57:00;;;;;;;97.72;7.63;;;10.70;99.90;;;;;;4947252;28;20062;-87
2021/07/03 02:59:27;;;;;;;90.65;6.65;;;10.70;99.90;;;;;;4942085;28;20394;-86
2021/07/03 03:01:53;;;;;;;100.32;8.15;;;10.70;99.90;;;;;;4966453;28;20116;-88
2021/07/03 03:04:21;;;;;;;86.50;7.68;;;10.70;99.90;;;;;;4930092;28;20061;-85
2021/07/03 03:06:47;;;;;;;57.30;6.15;;;10.70;99.90;;;;;;4970812;28;20042;-86
2021/07/03 03:09:15;;;;;;;52.47;8.90;;;10.70;99.90;;;;;;4960210;28;20557;-86
2021/07/03 03:11:41;;;;;;;70.25;10.50;;;10.70;99.90;;;;;;4976473;28;20510;-86
2021/07/03 03:14:07;;;;;;;136.73;10.02;;;10.70;99.90;;;;;;4972733;28;20050;-85
2021/07/03 03:16:34;;;;;;;96.50;8.30;;;10.70;99.90;;;;;;4953285;28;20043;-85
2021/07/03 03:19:00;;;;;;;136.75;8.45;;;10.70;99.90;;;;;;4955910;28;20039;-88
2021/07/03 03:21:26;;;;;;;129.65;10.02;;;10.70;99.90;;;;;;4975197;28;20126;-85
2021/07/03 03:23:52;;;;;;;116.80;7.50;;;10.70;99.90;;;;;;4940288;28;20049;-86
2021/07/03 03:26:18;;;;;;;105.78;6.00;;;10.70;99.90;;;;;;4955648;28;20059;-85
2021/07/03 03:28:44;;;;;;;66.93;5.97;;;10.70;99.90;;;;;;4956312;28;20070;-85
2021/07/03 03:31:10;;;;;;;22.77;6.70;;;10.70;99.90;;;;;;4954547;28;20491;-85
2021/07/03 03:33:36;;;;;;;40.70;10.23;;;10.70;99.90;;;;;;4981066;28;20042;-85
2021/07/03 03:36:03;;;;;;;20.20;7.22;;;10.70;99.90;;;;;;4961028;28;20043;-87
2021/07/03 03:38:30;;;;;;;20.33;7.28;;;10.70;99.90;;;;;;4955624;28;20054;-86
2021/07/03 03:40:55;;;;;;;112.90;11.20;;;10.70;99.90;;;;;;4964378;28;20053;-84
2021/07/03 03:43:21;;;;;;;32.20;8.20;;;10.70;99.90;;;;;;4955012;28;20125;-85
2021/07/03 03:45:48;;;;;;;45.97;8.38;;;10.70;99.90;;;;;;4939961;28;20051;-85
2021/07/03 03:48:14;;;;;;;72.05;3.40;;;10.70;99.90;;;;;;4954761;28;20090;-85
2021/07/03 03:50:40;;;;;;;90.30;8.75;;;10.70;99.90;;;;;;4939280;28;20167;-87
2021/07/03 03:53:05;;;;;;;113.68;10.70;;;10.70;99.90;;;;;;4950254;28;20067;-88
2021/07/03 03:55:31;;;;;;;95.38;10.05;;;10.70;99.90;;;;;;4986801;28;20062;-85
2021/07/03 03:57:57;;;;;;;168.40;16.15;;;10.70;99.90;;;;;;4974669;28;20112;-85
2021/07/03 04:00:23;;;;;;;165.38;13.48;;;10.80;99.90;;;;;;4957539;28;20077;-84
2021/07/03 04:02:49;;;;;;;78.85;8.30;;;10.80;99.90;;;;;;4957879;28;20421;-86
2021/07/03 04:05:15;;;;;;;161.95;13.45;;;10.80;99.90;;;;;;4941211;28;20039;-84
2021/07/03 04:07:42;;;;;;;100.80;8.35;;;10.80;99.90;;;;;;4974545;28;20118;-85
2021/07/03 04:10:10;;;;;;;149.57;7.28;;;10.80;99.90;;;;;;4957482;28;20043;-87
2021/07/03 04:12:36;;;;;;;84.30;5.68;;;10.80;99.90;;;;;;4958487;28;20042;-84
2021/07/03 04:15:03;;;;;;;37.00;6.45;;;10.80;99.90;;;;;;4974288;28;20046;-84
2021/07/03 04:17:29;;;;;;;12.75;6.18;;;10.90;99.90;;;;;;4989393;28;20056;-85
2021/07/03 04:19:55;;;;;;;17.52;8.88;;;10.90;99.90;;;;;;4973445;28;20042;-83
2021/07/03 04:22:21;;;;;;;18.20;9.60;;;10.90;99.90;;;;;;4973334;28;20116;-84
2021/07/03 04:24:47;;;;;;;18.02;8.90;;;11.00;99.90;;;;;;4957963;28;20038;-84
2021/07/03 04:27:13;;;;;;;24.30;10.30;;;11.10;99.90;;;;;;4961938;28;20039;-84
2021/07/03 04:29:39;;;;;;;17.25;10.15;;;11.10;99.90;;;;;;4971834;28;20088;-84
2021/07/03 04:32:05;;;;;;;21.90;9.45;;;11.10;99.90;;;;;;4957576;28;20544;-84
2021/07/03 04:34:31;;;;;;;20.10;9.80;;;11.20;99.90;;;;;;4990238;28;20129;-84
2021/07/03 04:36:59;;;;;;;20.92;8.15;;;11.20;99.90;;;;;;4974024;28;20042;-85
2021/07/03 04:39:25;;;;;;;19.88;7.65;;;11.30;99.90;;;;;;4972730;28;20038;-85
2021/07/03 04:41:52;;;;;;;14.73;8.32;;;11.30;99.90;;;;;;4957297;28;20034;-84
2021/07/03 04:44:18;;;;;;;17.17;9.68;;;11.30;99.90;;;;;;4990120;28;20070;-86
2021/07/03 04:46:46;;;;;;;8.60;6.40;;;11.30;99.90;;;;;;4973223;28;20113;-85
2021/07/03 04:49:12;;;;;;;17.75;9.50;;;11.40;99.90;;;;;;4972834;28;20042;-88
2021/07/03 04:51:38;;;;;;;9.68;7.68;;;11.40;99.90;;;;;;4990380;28;20043;-85
2021/07/03 04:54:04;;;;;;;22.85;8.20;;;11.50;99.90;;;;;;4973200;28;20044;-84
2021/07/03 04:56:30;;;;;;;19.75;9.52;;;11.50;99.90;;;;;;4989855;28;20117;-85
2021/07/03 04:58:57;;;;;;;21.98;10.98;;;11.60;99.90;;;;;;4990801;28;20126;-83
2021/07/03 05:01:23;;;;;;;26.15;11.75;;;11.60;99.90;;;;;;4985074;28;20047;-84
2021/07/03 05:03:50;;;;;;;30.42;11.50;;;11.70;99.90;;;;;;4968875;28;20518;-84
2021/07/03 05:06:16;;;;;;;24.42;8.48;;;11.80;99.90;;;;;;4947813;28;20161;-84
2021/07/03 05:08:42;;;;;;;27.75;11.30;;;11.80;99.90;;;;;;4972910;28;20516;-85
2021/07/03 05:11:08;;;;;;;20.02;9.90;;;11.90;99.90;;;;;;4957396;28;20039;-84
2021/07/03 05:13:34;;;;;;;23.95;10.82;;;12.00;99.90;;;;;;4956798;28;20370;-86
2021/07/03 05:16:00;;;;;;;23.02;12.77;;;12.10;99.90;;;;;;4969829;28;20081;-85
2021/07/03 05:18:26;;;;;;;31.33;16.35;;;12.20;99.90;;;;;;4962497;28;20046;-84
2021/07/03 05:20:52;;;;;;;29.60;16.27;;;12.30;99.90;;;;;;4990053;28;20394;-85
2021/07/03 05:23:18;;;;;;;32.08;15.18;;;12.40;99.90;;;;;;4956088;28;20454;-84
2021/07/03 05:25:45;;;;;;;34.63;16.75;;;12.60;99.90;;;;;;4972432;28;20046;-84
2021/07/03 05:28:14;;;;;;;40.53;19.05;;;12.70;99.90;;;;;;4972623;28;20046;-87
2021/07/03 05:30:41;;;;;;;44.42;20.20;;;12.80;99.90;;;;;;4972113;28;20042;-85
2021/07/03 05:33:08;;;;;;;59.60;22.45;;;12.90;99.90;;;;;;4990002;28;20069;-84
2021/07/03 05:35:34;;;;;;;48.78;22.63;;;13.00;99.90;;;;;;4972223;28;20073;-84
2021/07/03 05:38:00;;;;;;;48.25;21.85;;;13.00;99.90;;;;;;4990208;28;20121;-84
2021/07/03 05:40:26;;;;;;;48.75;23.73;;;13.10;99.90;;;;;;4971892;28;20122;-85
2021/07/03 05:42:52;;;;;;;43.42;23.15;;;13.20;99.90;;;;;;4971546;28;20065;-85
2021/07/03 05:45:18;;;;;;;42.40;25.10;;;13.20;99.90;;;;;;4987779;28;20077;-83
2021/07/03 05:47:52;;;;;;;50.10;27.13;;;13.30;99.90;;;;;;4956901;28;20119;-83
2021/07/03 05:50:26;;;;;;;62.67;29.40;;;13.30;99.90;;;;;;4988987;28;20074;-84
2021/07/03 05:52:52;;;;;;;61.40;29.27;;;13.50;99.90;;;;;;4989767;28;20039;-84
2021/07/03 05:55:18;;;;;;;49.85;24.58;;;13.60;99.90;;;;;;4960875;28;20065;-83
2021/07/03 05:57:45;;;;;;;53.22;27.20;;;13.80;99.90;;;;;;4937348;28;20410;-84
2021/07/03 06:00:12;;;;;;;43.28;23.70;;;13.90;99.90;;;;;;4937314;28;20042;-83
2021/07/03 06:02:38;;;;;;;41.40;19.60;;;14.00;99.90;;;;;;4952382;28;20078;-84
2021/07/03 06:05:05;;;;;;;41.33;23.45;;;14.20;99.90;;;;;;4952965;28;20478;-83
2021/07/03 06:07:32;;;;;;;31.48;20.20;;;14.30;99.90;;;;;;4952219;28;20043;-83
2021/07/03 06:09:58;;;;;;;48.75;22.95;;;14.50;99.90;;;;;;4970119;28;20137;-83
2021/07/03 06:12:25;;;;;;;44.55;21.70;;;14.50;99.90;;;;;;4952044;28;20090;-83
2021/07/03 06:14:51;;;;;;;40.78;20.33;;;14.60;99.90;;;;;;4970355;28;20114;-82
2021/07/03 06:17:17;;;;;;;29.65;16.60;;;14.70;99.90;;;;;;4952708;28;20066;-85
2021/07/03 06:19:44;;;;;;;34.40;20.10;;;14.70;99.90;;;;;;4944360;28;20414;-83
2021/07/03 06:22:12;;;;;;;25.27;15.23;;;14.80;99.90;;;;;;4952846;28;20456;-82
2021/07/03 06:24:39;;;;;;;27.52;12.98;;;14.90;99.90;;;;;;4935852;28;20043;-85
2021/07/03 06:27:05;;;;;;;23.83;13.02;;;15.00;99.90;;;;;;4952810;28;20069;-83
2021/07/03 06:29:31;;;;;;;23.27;12.90;;;15.00;99.90;;;;;;4968883;28;20402;-83
2021/07/03 06:31:57;;;;;;;19.98;10.95;;;15.10;99.90;;;;;;4935476;28;20050;-82
2021/07/03 06:34:22;;;;;;;20.27;10.13;;;15.10;99.90;;;;;;4945773;28;20051;-83
2021/07/03 06:36:48;;;;;;;23.13;10.50;;;15.20;99.90;;;;;;4937406;28;20046;-84
2021/07/03 06:39:15;;;;;;;22.58;12.10;;;15.30;99.90;;;;;;4931317;28;20550;-85
2021/07/03 06:41:40;;;;;;;22.85;10.45;;;15.40;99.90;;;;;;4955241;28;20051;-84
2021/07/03 06:44:06;;;;;;;17.75;9.45;;;15.50;99.90;;;;;;4939035;28;20039;-87
2021/07/03 06:46:32;;;;;;;14.82;9.77;;;15.50;99.90;;;;;;4952416;28;20054;-84
2021/07/03 06:49:04;;;;;;;26.48;11.48;;;15.70;99.90;;;;;;4956236;28;20493;-86
2021/07/03 06:51:39;;;;;;;19.40;8.93;;;15.80;99.90;;;;;;4956190;28;20039;-85
2021/07/03 06:54:05;;;;;;;14.82;7.35;;;15.80;99.90;;;;;;4940415;28;20046;-84
2021/07/03 06:56:31;;;;;;;12.70;5.95;;;15.90;99.90;;;;;;4957847;28;20430;-85
2021/07/03 06:58:57;;;;;;;9.70;6.65;;;16.00;99.90;;;;;;4994613;28;20125;-84
2021/07/03 07:01:23;;;;;;;18.73;7.15;;;16.00;99.90;;;;;;4972513;28;20048;-85
2021/07/03 07:03:49;;;;;;;19.70;6.57;;;16.10;99.90;;;;;;4974633;28;20053;-84
2021/07/03 07:06:15;;;;;;;16.52;6.28;;;16.10;99.90;;;;;;4974484;28;20042;-86
2021/07/03 07:08:41;;;;;;;15.38;6.40;;;16.20;99.90;;;;;;4974145;28;20141;-87
2021/07/03 07:11:06;;;;;;;20.95;6.93;;;16.20;99.90;;;;;;4985493;28;20070;-88
2021/07/03 07:13:32;;;;;;;13.02;6.97;;;16.20;99.90;;;;;;4992566;28;20104;-87
2021/07/03 07:15:58;;;;;;;15.70;5.90;;;16.30;99.90;;;;;;4972889;28;20101;-87
2021/07/03 07:18:24;;;;;;;11.70;4.85;;;16.30;99.90;;;;;;4958034;28;20138;-88
2021/07/03 07:20:49;;;;;;;8.45;4.20;;;16.40;99.90;;;;;;4979250;28;20077;-87
2021/07/03 07:23:15;;;;;;;13.38;6.28;;;16.50;99.90;;;;;;4959730;28;20050;-87
2021/07/03 07:25:42;;;;;;;17.58;6.20;;;16.50;99.90;;;;;;4961103;28;20105;-87
2021/07/03 07:28:07;;;;;;;13.35;6.10;;;16.60;99.90;;;;;;4977924;28;20105;-86
2021/07/03 07:30:33;;;;;;;19.38;6.05;;;16.70;99.90;;;;;;4994631;28;20438;-86
2021/07/03 07:32:59;;;;;;;18.38;9.38;;;16.70;99.90;;;;;;4992630;28;20034;-88
2021/07/03 07:35:25;;;;;;;13.15;7.85;;;16.80;99.90;;;;;;4992708;28;20050;-88
2021/07/03 07:37:51;;;;;;;13.30;9.00;;;16.70;99.90;;;;;;4993152;28;20042;-87
2021/07/03 07:40:18;;;;;;;10.55;8.48;;;16.70;99.90;;;;;;4959591;28;20038;-88
2021/07/03 07:42:45;;;;;;;13.73;9.38;;;16.80;99.90;;;;;;4993497;28;20042;-86
2021/07/03 07:45:11;;;;;;;13.13;9.05;;;16.80;99.90;;;;;;4992512;28;20109;-86
2021/07/03 07:47:37;;;;;;;14.23;10.10;;;16.90;99.90;;;;;;4971146;28;20125;-87
2021/07/03 07:50:06;;;;;;;16.75;10.50;;;17.10;99.90;;;;;;4976162;28;20113;-87
2021/07/03 07:52:32;;;;;;;19.35;10.77;;;17.10;99.90;;;;;;4973577;28;20038;-87
2021/07/03 07:54:58;;;;;;;18.90;11.57;;;17.20;99.90;;;;;;4955727;28;20157;-87
2021/07/03 07:57:24;;;;;;;21.98;11.18;;;17.30;99.90;;;;;;4940392;28;20122;-90
2021/07/03 07:59:50;;;;;;;15.23;9.23;;;17.50;99.90;;;;;;4941991;28;20862;-88
2021/07/03 08:02:16;;;;;;;12.30;7.63;;;17.60;99.90;;;;;;4943338;28;20050;-87
2021/07/03 08:04:42;;;;;;;15.52;8.10;;;17.80;99.90;;;;;;4956572;28;20569;-88
2021/07/03 08:07:08;;;;;;;11.30;8.02;;;17.90;99.90;;;;;;4941126;28;20038;-87
2021/07/03 08:09:34;;;;;;;13.25;7.88;;;18.00;99.90;;;;;;4952743;28;20050;-89
2021/07/03 08:12:00;;;;;;;12.05;7.72;;;18.10;99.90;;;;;;4968631;28;20043;-87
2021/07/03 08:14:26;;;;;;;13.55;7.32;;;18.20;99.90;;;;;;4953588;28;20051;-88
2021/07/03 08:16:52;;;;;;;18.48;7.05;;;18.30;99.90;;;;;;4938207;28;20039;-87
2021/07/03 08:19:18;;;;;;;7.93;6.07;;;18.30;99.90;;;;;;4936472;28;20043;-87
2021/07/03 08:21:44;;;;;;;9.32;5.10;;;18.30;99.90;;;;;;4937850;28;20093;-88
2021/07/03 08:24:10;;;;;;;6.97;4.82;;;18.20;99.90;;;;;;4954182;28;20051;-88
2021/07/03 08:26:36;;;;;;;10.68;4.65;;;18.20;99.90;;;;;;4952219;28;20039;-88
2021/07/03 08:29:03;;;;;;;10.88;5.05;;;18.20;99.90;;;;;;4937950;28;20047;-89
2021/07/03 08:31:29;;;;;;;6.45;5.03;;;18.30;99.90;;;;;;4954397;28;20042;-90
2021/07/03 08:33:54;;;;;;;5.57;3.53;;;18.30;99.90;;;;;;4971579;28;20049;-87
2021/07/03 08:36:21;;;;;;;5.38;3.85;;;18.40;99.90;;;;;;4954612;28;20042;-87
2021/07/03 08:38:51;;;;;;;5.65;3.92;;;18.50;99.90;;;;;;4953131;28;20073;-89
2021/07/03 08:41:18;;;;;;;5.93;3.92;;;18.40;99.90;;;;;;4966132;28;20043;-87
2021/07/03 08:43:49;;;;;;;7.93;4.20;;;18.50;99.90;;;;;;4961405;28;20064;-87
2021/07/03 08:46:21;;;;;;;8.07;3.58;;;18.70;99.90;;;;;;4964028;28;20090;-85
2021/07/03 08:48:52;;;;;;;6.40;3.55;;;18.80;99.90;;;;;;4953808;28;20057;-87
2021/07/03 08:51:18;;;;;;;5.03;3.50;;;18.80;99.90;;;;;;4984695;28;20043;-87
2021/07/03 08:53:43;;;;;;;4.50;3.30;;;18.90;99.90;;;;;;4953785;28;20038;-89
2021/07/03 08:56:09;;;;;;;6.50;4.22;;;19.00;99.90;;;;;;4984595;28;20513;-86
2021/07/03 08:58:35;;;;;;;4.82;2.97;;;19.10;99.90;;;;;;4967361;28;20097;-86
2021/07/03 09:01:05;;;;;;;4.00;2.67;;;19.20;99.90;;;;;;4966831;28;20084;-86
2021/07/03 09:03:31;;;;;;;3.33;3.05;;;19.20;99.90;;;;;;4949190;28;20555;-89
2021/07/03 09:05:59;;;;;;;10.82;3.17;;;19.20;99.90;;;;;;4954127;28;20038;-87
2021/07/03 09:08:27;;;;;;;7.07;3.08;;;19.20;99.90;;;;;;4966914;28;20058;-86
2021/07/03 09:11:03;;;;;;;3.72;3.08;;;19.20;99.90;;;;;;4953882;28;20153;-86
2021/07/03 09:13:30;;;;;;;4.93;3.10;;;19.20;99.90;;;;;;4953577;28;20129;-88
2021/07/03 09:15:57;;;;;;;8.77;4.28;;;19.40;99.90;;;;;;4952788;28;20046;-86
2021/07/03 09:18:25;;;;;;;6.47;3.30;;;19.60;99.90;;;;;;4953459;28;20051;-87
2021/07/03 09:20:57;;;;;;;10.73;3.60;;;19.70;99.90;;;;;;4968655;28;20129;-87
2021/07/03 09:23:25;;;;;;;3.67;3.20;;;19.90;99.90;;;;;;4937574;28;20435;-86
2021/07/03 09:25:57;;;;;;;8.02;2.92;;;20.10;99.90;;;;;;4969427;28;20043;-87
2021/07/03 09:28:26;;;;;;;7.32;2.92;;;20.30;99.90;;;;;;4970198;28;20384;-86
2021/07/03 09:30:54;;;;;;;5.07;2.97;;;20.30;99.90;;;;;;4952852;28;20051;-87
2021/07/03 09:33:25;;;;;;;7.50;3.03;;;20.20;99.90;;;;;;4940305;28;20133;-87
2021/07/03 09:35:57;;;;;;;3.20;2.90;;;19.90;99.90;;;;;;4952485;28;20042;-87
2021/07/03 09:38:34;;;;;;;6.55;2.97;;;19.90;99.90;;;;;;4953155;28;20054;-86
2021/07/03 09:41:14;;;;;;;4.30;2.70;;;20.10;99.90;;;;;;4953019;28;20525;-87
2021/07/03 09:43:49;;;;;;;1.95;1.80;;;20.20;99.90;;;;;;4957412;28;20051;-86
2021/07/03 09:46:21;;;;;;;4.30;2.35;;;20.20;99.90;;;;;;4952443;28;20074;-86
2021/07/03 09:48:49;;;;;;;3.08;1.98;;;20.30;99.90;;;;;;4963480;28;20034;-86
2021/07/03 09:51:15;;;;;;;3.72;2.45;;;20.40;99.90;;;;;;4969386;28;20414;-86
2021/07/03 09:53:42;;;;;;;5.60;3.17;;;20.60;99.90;;;;;;4952285;28;20053;-86
2021/07/03 09:56:10;;;;;;;3.97;3.03;;;20.50;99.90;;;;;;4951776;28;20073;-86
2021/07/03 09:58:37;;;;;;;4.28;2.78;;;20.50;99.90;;;;;;4971884;28;20030;-90
2021/07/03 10:01:03;;;;;;;3.17;2.80;;;20.30;99.90;;;;;;4956499;28;20042;-88
2021/07/03 10:03:28;;;;;;;4.13;2.33;;;20.20;99.90;;;;;;4972169;28;20504;-86
2021/07/03 10:05:57;;;;;;;3.25;2.80;;;20.30;99.90;;;;;;4971422;28;20579;-86
2021/07/03 10:08:26;;;;;;;4.18;2.30;;;20.40;99.90;;;;;;4989682;28;20042;-86
2021/07/03 10:10:57;;;;;;;4.40;2.65;;;20.60;99.90;;;;;;4988251;28;20038;-86
2021/07/03 10:13:24;;;;;;;3.30;2.53;;;20.90;99.90;;;;;;4989282;28;20053;-86
2021/07/03 10:16:00;;;;;;;7.78;3.28;;;21.10;99.90;;;;;;4992653;28;20042;-87
2021/07/03 10:18:26;;;;;;;4.93;2.75;;;21.10;99.90;;;;;;4975919;28;20536;-86
2021/07/03 10:20:52;;;;;;;8.15;3.50;;;21.20;99.90;;;;;;4957179;28;20042;-87
2021/07/03 10:23:18;;;;;;;4.93;2.53;;;21.10;99.90;;;;;;4961436;28;20050;-86
2021/07/03 10:25:49;;;;;;;7.03;3.20;;;20.90;99.90;;;;;;4971630;28;20039;-88
2021/07/03 10:28:16;;;;;;;4.47;2.70;;;20.80;99.90;;;;;;4991595;28;20046;-87
2021/07/03 10:30:49;;;;;;;2.92;2.42;;;20.80;99.90;;;;;;4958185;28;20655;-87
2021/07/03 10:33:25;;;;;;;2.80;2.45;;;21.00;99.90;;;;;;4993932;28;20053;-87
2021/07/03 10:35:54;;;;;;;6.15;2.67;;;21.30;99.90;;;;;;4957950;28;20046;-86
2021/07/03 10:38:38;;;;;;;2.40;2.20;;;21.40;99.90;;;;;;4994902;28;20050;-86
2021/07/03 10:41:20;;;;;;;4.40;2.50;;;21.40;99.90;;;;;;4993095;28;20046;-86
2021/07/03 10:43:47;;;;;;;4.28;2.35;;;21.60;99.90;;;;;;4979426;28;20049;-86
2021/07/03 10:46:28;;;;;;;2.13;1.92;;;21.70;99.90;;;;;;4976774;28;20460;-85
2021/07/03 10:49:16;;;;;;;3.38;2.50;;;22.00;99.90;;;;;;4980650;28;20411;-87
2021/07/03 10:51:44;;;;;;;2.42;2.00;;;22.20;99.90;;;;;;4967686;28;20037;-87
2021/07/03 10:54:29;;;;;;;4.70;3.05;;;22.20;99.90;;;;;;4975965;28;20046;-87
2021/07/03 10:57:05;;;;;;;3.03;2.67;;;22.00;99.90;;;;;;4973913;28;20064;-84
2021/07/03 10:59:40;;;;;;;7.32;2.70;;;22.00;99.90;;;;;;4985429;28;20100;-86
2021/07/03 11:02:11;;;;;;;5.07;2.70;;;22.10;99.90;;;;;;4984073;28;20038;-86
2021/07/03 11:04:52;;;;;;;3.38;2.60;;;22.40;99.90;;;;;;5007678;28;20398;-85
2021/07/03 11:07:20;;;;;;;5.88;2.58;;;22.50;99.90;;;;;;4996263;28;20541;-86
2021/07/03 11:09:46;;;;;;;5.28;2.88;;;22.60;99.90;;;;;;4986505;28;20467;-86
2021/07/03 11:12:15;;;;;;;3.13;2.50;;;22.60;99.90;;;;;;4984924;28;20510;-87
2021/07/03 11:14:51;;;;;;;2.83;2.10;;;22.60;99.90;;;;;;4974362;28;20046;-88
2021/07/03 11:17:19;;;;;;;2.72;2.30;;;22.70;99.90;;;;;;4991154;28;20038;-88
2021/07/03 11:19:50;;;;;;;2.40;2.20;;;22.80;99.90;;;;;;4977402;28;20038;-86
2021/07/03 11:22:21;;;;;;;4.18;2.42;;;22.80;99.90;;;;;;4991984;28;20062;-86
2021/07/03 11:25:05;;;;;;;3.03;1.98;;;22.80;99.90;;;;;;4959629;28;20466;-85
2021/07/03 11:27:40;;;;;;;3.55;2.25;;;22.90;99.90;;;;;;4974605;28;20047;-86
2021/07/03 11:30:20;;;;;;;2.50;2.13;;;22.90;99.90;;;;;;4991195;28;20089;-85
2021/07/03 11:32:54;;;;;;;4.90;2.50;;;23.00;99.90;;;;;;4989890;28;20050;-85
2021/07/03 11:35:21;;;;;;;2.40;1.85;;;23.10;99.90;;;;;;4992062;28;20050;-85
2021/07/03 11:37:48;;;;;;;3.65;2.20;;;23.10;99.90;;;;;;4985252;28;20042;-85
2021/07/03 11:40:33;;;;;;;3.10;2.20;;;22.90;99.90;;;;;;4975724;28;20085;-85
2021/07/03 11:43:01;;;;;;;2.95;2.55;;;23.00;99.90;;;;;;4975708;28;20100;-85
2021/07/03 11:45:31;;;;;;;3.25;2.50;;;23.20;99.90;;;;;;4992341;28;20053;-84
2021/07/03 11:48:05;;;;;;;2.60;2.07;;;23.40;99.90;;;;;;4989919;28;20073;-85
2021/07/03 11:50:34;;;;;;;4.13;1.88;;;23.30;99.90;;;;;;4992112;28;20048;-86
2021/07/03 11:53:01;;;;;;;1.60;1.50;;;23.20;99.90;;;;;;4994794;28;20490;-86
2021/07/03 11:55:37;;;;;;;1.83;1.40;;;23.50;99.90;;;;;;4972396;28;20068;-85
2021/07/03 11:58:04;;;;;;;3.58;1.70;;;23.70;99.90;;;;;;4986606;28;20054;-85
2021/07/03 12:00:36;;;;;;;1.52;1.42;;;23.90;99.90;;;;;;4988918;28;20061;-86
2021/07/03 12:03:08;;;;;;;3.08;1.40;;;24.10;99.90;;;;;;4972544;28;20043;-85
2021/07/03 12:05:40;;;;;;;3.42;1.33;;;24.20;99.90;;;;;;4989185;28;20046;-85
2021/07/03 12:08:08;;;;;;;4.95;1.30;;;24.40;99.90;;;;;;4988120;28;20038;-85
2021/07/03 12:10:43;;;;;;;4.83;2.30;;;24.40;99.90;;;;;;4975048;28;20042;-84
2021/07/03 12:13:21;;;;;;;3.88;1.40;;;24.40;99.90;;;;;;4971656;28;20097;-85
2021/07/03 12:15:49;;;;;;;1.20;1.10;;;24.10;99.40;;;;;;4976469;28;20226;-86
2021/07/03 12:18:35;;;;;;;1.40;1.30;;;23.80;99.90;;;;;;4976278;28;20046;-85
2021/07/03 12:21:15;;;;;;;1.30;1.10;;;23.60;99.90;;;;;;4976903;28;20047;-84
2021/07/03 12:23:47;;;;;;;1.73;1.30;;;23.30;99.90;;;;;;4981030;28;20077;-85
2021/07/03 12:26:25;;;;;;;1.83;1.38;;;23.00;99.00;;;;;;4976653;28;20042;-85
2021/07/03 12:29:04;;;;;;;2.38;0.90;;;22.80;99.90;;;;;;4977344;28;20057;-85
2021/07/03 12:31:32;;;;;;;3.40;1.27;;;22.90;99.90;;;;;;4977581;28;20129;-84
2021/07/03 12:34:13;;;;;;;1.88;1.40;;;23.00;99.90;;;;;;4973169;28;20041;-85
2021/07/03 12:36:47;;;;;;;2.75;1.45;;;22.90;99.40;;;;;;4977466;28;20073;-85
2021/07/03 12:39:16;;;;;;;2.55;1.23;;;22.80;99.90;;;;;;4973099;28;20101;-84